Time;durP1;ratioP1;P1;durP2;ratioP2;P2;SDS_P1;SDS_P2;PMS_P1;PMS_P2;Temp;Humidity;BMP_temperature;BMP_pressure;BME280_temperature;BME280_humidity;BME280_pressure;Samples;Min_cycle;Max_cycle;Signal;HPM_P1;HPM_P2
2023/02/18 00:00:16;;;;;;;7.43;1.45;;;8.70;91.30;;;;;;5013955;28;20038;-62
2023/02/18 00:02:42;;;;;;;11.95;1.73;;;8.60;91.10;;;;;;5009739;28;20941;-62
2023/02/18 00:05:08;;;;;;;9.05;1.75;;;8.60;91.50;;;;;;5013847;28;20048;-62
2023/02/18 00:07:35;;;;;;;10.50;1.88;;;8.60;91.10;;;;;;5014807;28;20034;-62
2023/02/18 00:10:02;;;;;;;12.65;1.98;;;8.60;91.30;;;;;;5009894;28;20041;-62
2023/02/18 00:12:29;;;;;;;9.63;2.08;;;8.60;91.30;;;;;;5010564;28;20111;-62
2023/02/18 00:14:55;;;;;;;10.68;1.15;;;8.60;91.30;;;;;;5015835;28;20562;-62
2023/02/18 00:17:21;;;;;;;11.75;1.60;;;8.50;91.20;;;;;;5016727;28;20132;-63
2023/02/18 00:19:46;;;;;;;13.50;1.38;;;8.50;91.40;;;;;;5016826;28;20029;-62
2023/02/18 00:22:12;;;;;;;6.82;1.13;;;8.50;91.40;;;;;;5011450;28;20038;-62
2023/02/18 00:24:38;;;;;;;11.65;1.88;;;8.40;91.30;;;;;;5013569;28;20048;-61
2023/02/18 00:27:04;;;;;;;14.98;2.35;;;8.40;91.70;;;;;;5010586;28;20037;-62
2023/02/18 00:29:30;;;;;;;5.78;1.45;;;8.30;91.70;;;;;;5010998;28;20072;-62
2023/02/18 00:31:56;;;;;;;9.43;1.50;;;8.30;91.60;;;;;;5009347;28;20855;-62
2023/02/18 00:34:22;;;;;;;11.23;3.13;;;8.30;91.70;;;;;;5009802;28;20121;-62
2023/02/18 00:36:47;;;;;;;13.52;1.50;;;8.40;91.80;;;;;;5017633;28;20087;-62
2023/02/18 00:39:14;;;;;;;9.15;1.65;;;8.30;91.70;;;;;;5010677;28;20029;-62
2023/02/18 00:41:41;;;;;;;8.50;1.27;;;8.30;91.70;;;;;;5015407;28;20121;-62
2023/02/18 00:44:07;;;;;;;9.90;1.50;;;8.30;91.80;;;;;;5010016;28;20052;-62
2023/02/18 00:46:33;;;;;;;13.32;1.50;;;8.30;91.90;;;;;;5012586;28;20120;-62
2023/02/18 00:49:00;;;;;;;8.88;1.58;;;8.20;91.80;;;;;;5009314;28;20034;-62
2023/02/18 00:51:26;;;;;;;8.52;1.73;;;8.20;92.00;;;;;;5006220;28;20087;-62
2023/02/18 00:53:52;;;;;;;9.70;1.83;;;8.20;92.20;;;;;;5010178;28;20683;-62
2023/02/18 00:56:18;;;;;;;11.32;1.50;;;8.10;92.10;;;;;;5008835;28;20707;-62
2023/02/18 00:58:44;;;;;;;10.50;1.60;;;8.10;92.20;;;;;;5013924;28;20040;-62
2023/02/18 01:01:10;;;;;;;8.50;1.50;;;8.10;92.20;;;;;;5015055;28;20029;-62
2023/02/18 01:03:38;;;;;;;7.78;1.52;;;8.10;92.30;;;;;;5018065;28;20033;-62
2023/02/18 01:06:06;;;;;;;12.88;1.55;;;8.10;92.40;;;;;;5009516;28;20068;-62
2023/02/18 01:08:32;;;;;;;8.10;1.33;;;8.00;92.40;;;;;;5011630;28;20040;-62
2023/02/18 01:10:59;;;;;;;8.60;1.60;;;8.00;92.70;;;;;;5012511;28;20025;-63
2023/02/18 01:13:25;;;;;;;10.38;1.20;;;7.90;92.70;;;;;;5009724;28;20603;-62
2023/02/18 01:15:51;;;;;;;8.52;1.67;;;7.90;92.70;;;;;;5005318;28;20461;-62
2023/02/18 01:18:18;;;;;;;5.55;1.25;;;7.90;92.90;;;;;;5013803;28;20137;-62
2023/02/18 01:20:45;;;;;;;8.25;1.92;;;7.90;92.80;;;;;;5010956;28;20043;-62
2023/02/18 01:23:12;;;;;;;8.30;1.33;;;8.00;92.80;;;;;;5015114;28;20033;-62
2023/02/18 01:25:38;;;;;;;7.50;1.45;;;7.90;92.70;;;;;;5018266;28;20068;-62
2023/02/18 01:28:08;;;;;;;8.85;1.70;;;7.90;92.90;;;;;;5009535;28;20034;-62
2023/02/18 01:30:34;;;;;;;6.70;1.02;;;8.00;93.00;;;;;;5010968;28;20142;-62
2023/02/18 01:33:00;;;;;;;9.20;1.00;;;8.00;92.90;;;;;;5012576;28;20512;-62
2023/02/18 01:35:26;;;;;;;11.00;1.52;;;8.00;92.80;;;;;;5009906;28;20033;-62
2023/02/18 01:37:54;;;;;;;9.70;1.35;;;8.00;92.70;;;;;;5008366;28;20494;-62
2023/02/18 01:40:24;;;;;;;7.75;1.02;;;8.00;92.60;;;;;;5016121;28;20080;-62
2023/02/18 01:42:50;;;;;;;8.73;1.85;;;8.00;93.00;;;;;;5011777;28;20040;-62
2023/02/18 01:45:37;;;;;;;10.75;1.45;;;8.00;92.80;;;;;;5010058;28;20037;-61
2023/02/18 01:48:03;;;;;;;;;;;8.00;92.80;;;;;;5028345;28;20532;-62
2023/02/18 01:50:33;;;;;;;9.85;1.40;;;8.00;92.50;;;;;;5013892;28;19909;-62
2023/02/18 01:53:00;;;;;;;12.75;1.58;;;8.00;92.60;;;;;;5008900;28;20088;-62
2023/02/18 01:55:26;;;;;;;8.13;1.80;;;8.00;92.50;;;;;;5008027;28;20033;-62
2023/02/18 01:57:52;;;;;;;11.95;1.50;;;8.00;92.40;;;;;;5011683;28;20805;-62
2023/02/18 02:00:21;;;;;;;7.88;1.80;;;7.90;92.80;;;;;;5010488;28;20485;-62
2023/02/18 02:02:51;;;;;;;12.70;1.42;;;7.90;92.80;;;;;;5016740;28;20025;-62
2023/02/18 02:05:18;;;;;;;7.75;1.83;;;8.00;92.80;;;;;;5013097;28;20061;-62
2023/02/18 02:07:46;;;;;;;10.00;1.30;;;7.90;92.60;;;;;;5015029;28;20489;-62
2023/02/18 02:10:14;;;;;;;12.07;1.40;;;7.90;92.70;;;;;;5009736;28;20029;-62
2023/02/18 02:12:45;;;;;;;7.68;1.52;;;7.90;92.70;;;;;;5016342;28;20032;-62
2023/02/18 02:15:23;;;;;;;8.48;1.42;;;7.90;92.60;;;;;;5007910;28;20038;-62
2023/02/18 02:18:26;;;;;;;6.68;1.20;;;7.90;92.60;;;;;;5007585;28;20113;-62
2023/02/18 02:21:39;;;;;;;7.47;1.20;;;8.00;92.50;;;;;;5009977;28;20032;-62
2023/02/18 02:24:05;;;;;;;6.65;1.25;;;8.00;92.50;;;;;;5015133;28;20221;-62
2023/02/18 02:26:40;;;;;;;10.02;1.80;;;8.00;92.30;;;;;;5013353;28;20028;-62
2023/02/18 02:29:24;;;;;;;7.88;1.23;;;8.00;92.40;;;;;;5012037;28;20033;-62
2023/02/18 02:32:17;;;;;;;9.13;1.25;;;8.00;92.20;;;;;;5010938;28;20040;-62
2023/02/18 02:35:12;;;;;;;13.23;1.67;;;7.90;92.20;;;;;;5014885;28;20030;-62
2023/02/18 02:37:52;;;;;;;8.50;1.17;;;8.00;92.30;;;;;;5003465;28;20140;-62
2023/02/18 02:40:36;;;;;;;9.77;1.05;;;7.90;92.00;;;;;;5008466;28;20802;-62
2023/02/18 02:43:24;;;;;;;9.60;1.33;;;7.90;92.00;;;;;;5005216;28;20041;-62
2023/02/18 02:45:59;;;;;;;10.13;1.58;;;7.80;91.90;;;;;;5014279;28;20586;-62
2023/02/18 02:48:35;;;;;;;7.53;1.25;;;7.80;92.10;;;;;;5008170;28;20176;-62
2023/02/18 02:51:29;;;;;;;11.52;1.35;;;7.80;92.20;;;;;;5011407;28;20119;-62
2023/02/18 02:54:12;;;;;;;7.60;1.30;;;7.80;92.20;;;;;;5011696;28;20029;-62
2023/02/18 02:56:38;;;;;;;4.65;0.75;;;7.80;92.10;;;;;;5013610;28;20692;-62
2023/02/18 02:59:11;;;;;;;10.52;1.20;;;7.80;92.10;;;;;;5009937;28;20034;-62
2023/02/18 03:02:07;;;;;;;5.68;1.40;;;7.80;91.90;;;;;;5015743;28;20029;-62
2023/02/18 03:04:51;;;;;;;6.65;1.00;;;7.70;92.00;;;;;;5011721;28;20065;-62
2023/02/18 03:07:46;;;;;;;4.55;1.02;;;7.70;91.90;;;;;;5017979;28;20119;-62
2023/02/18 03:10:12;;;;;;;7.55;0.80;;;7.70;92.00;;;;;;5015440;28;20042;-62
2023/02/18 03:12:58;;;;;;;6.32;1.50;;;7.70;91.90;;;;;;5013055;28;20087;-62
2023/02/18 03:15:56;;;;;;;5.38;0.82;;;7.60;92.00;;;;;;5017445;28;20091;-62
2023/02/18 03:18:35;;;;;;;6.72;1.27;;;7.60;91.90;;;;;;5015162;28;20617;-62
2023/02/18 03:21:07;;;;;;;9.27;1.10;;;7.60;92.10;;;;;;5010058;28;20037;-62
2023/02/18 03:23:56;;;;;;;8.63;1.17;;;7.60;92.00;;;;;;5014302;28;20064;-62
2023/02/18 03:26:24;;;;;;;4.45;0.85;;;7.60;91.80;;;;;;5011945;28;20042;-62
2023/02/18 03:28:53;;;;;;;5.15;0.93;;;7.60;91.90;;;;;;5013658;28;20033;-62
2023/02/18 03:31:22;;;;;;;8.48;1.52;;;7.60;91.80;;;;;;5018283;28;20572;-62
2023/02/18 03:34:14;;;;;;;4.93;0.90;;;7.50;91.80;;;;;;5016353;28;20040;-62
2023/02/18 03:36:42;;;;;;;10.00;0.93;;;7.60;91.90;;;;;;5003687;28;20054;-62
2023/02/18 03:39:20;;;;;;;5.25;1.00;;;7.60;91.90;;;;;;5014317;28;20040;-62
2023/02/18 03:41:46;;;;;;;5.75;1.05;;;7.50;91.90;;;;;;5029224;28;20488;-62
2023/02/18 03:44:12;;;;;;;6.85;1.05;;;7.60;92.00;;;;;;5009576;28;20040;-62
2023/02/18 03:46:42;;;;;;;7.93;0.90;;;7.60;91.60;;;;;;5012258;28;20037;-62
2023/02/18 03:49:13;;;;;;;8.20;1.30;;;7.50;91.60;;;;;;5013476;28;20029;-62
2023/02/18 03:51:40;;;;;;;4.95;0.98;;;7.50;91.90;;;;;;5017607;28;20413;-62
2023/02/18 03:54:07;;;;;;;8.93;1.02;;;7.50;91.90;;;;;;5014101;28;20030;-62
2023/02/18 03:56:33;;;;;;;5.47;1.00;;;7.50;92.00;;;;;;5019966;28;20033;-62
2023/02/18 03:58:59;;;;;;;8.82;1.17;;;7.50;92.00;;;;;;5012666;28;20041;-62
2023/02/18 04:01:25;;;;;;;5.10;1.00;;;7.50;92.00;;;;;;5014819;28;20025;-62
2023/02/18 04:03:51;;;;;;;7.00;0.90;;;7.50;91.90;;;;;;5012442;28;20719;-62
2023/02/18 04:06:17;;;;;;;3.65;0.88;;;7.50;91.60;;;;;;5011604;28;20124;-62
2023/02/18 04:08:43;;;;;;;1.90;0.52;;;7.50;91.80;;;;;;5016611;28;20048;-62
2023/02/18 04:11:09;;;;;;;6.40;0.90;;;7.50;92.30;;;;;;5016298;28;20036;-62
2023/02/18 04:13:34;;;;;;;6.80;1.25;;;7.50;92.00;;;;;;5015540;28;20107;-62
2023/02/18 04:16:00;;;;;;;2.10;0.70;;;7.50;91.80;;;;;;5014192;28;20044;-62
2023/02/18 04:18:26;;;;;;;7.20;1.38;;;7.50;91.80;;;;;;5015404;28;20104;-62
2023/02/18 04:20:52;;;;;;;8.30;1.05;;;7.50;92.00;;;;;;5015061;28;20033;-62
2023/02/18 04:23:17;;;;;;;6.03;1.00;;;7.50;92.20;;;;;;5012595;28;20555;-62
2023/02/18 04:25:43;;;;;;;7.43;0.60;;;7.50;91.90;;;;;;5013095;28;20118;-62
2023/02/18 04:28:12;;;;;;;6.40;1.08;;;7.50;92.10;;;;;;5011015;28;20117;-62
2023/02/18 04:30:38;;;;;;;3.35;0.80;;;7.70;92.10;;;;;;5014240;28;20017;-62
2023/02/18 04:33:04;;;;;;;5.72;1.02;;;7.70;92.00;;;;;;5016507;28;20136;-62
2023/02/18 04:35:30;;;;;;;4.78;1.02;;;7.80;91.90;;;;;;5017433;28;20374;-62
2023/02/18 04:37:55;;;;;;;5.95;1.13;;;7.90;91.60;;;;;;5013192;28;20475;-62
2023/02/18 04:40:24;;;;;;;6.35;0.98;;;8.00;91.60;;;;;;5013314;28;20388;-62
2023/02/18 04:42:50;;;;;;;5.18;0.85;;;8.00;91.50;;;;;;5013200;28;20026;-62
2023/02/18 04:45:15;;;;;;;5.30;0.82;;;8.10;91.30;;;;;;5010460;28;20038;-62
2023/02/18 04:47:41;;;;;;;5.43;0.70;;;8.10;91.20;;;;;;5009278;28;20476;-62
2023/02/18 04:50:08;;;;;;;8.98;1.30;;;8.10;91.20;;;;;;5010460;28;20091;-62
2023/02/18 04:52:33;;;;;;;10.90;1.20;;;8.20;90.90;;;;;;5011961;28;20144;-62
2023/02/18 04:54:59;;;;;;;5.60;0.73;;;8.20;91.00;;;;;;5011350;28;20033;-62
2023/02/18 04:57:25;;;;;;;2.75;0.77;;;8.30;90.60;;;;;;5014839;28;20128;-62
2023/02/18 04:59:50;;;;;;;2.72;0.80;;;8.30;90.70;;;;;;5016296;28;20036;-62
2023/02/18 05:02:16;;;;;;;3.80;0.77;;;8.30;90.90;;;;;;5008793;28;20046;-62
2023/02/18 05:04:42;;;;;;;7.93;0.77;;;8.40;90.80;;;;;;5011663;28;20037;-62
2023/02/18 05:07:08;;;;;;;4.35;0.73;;;8.40;90.80;;;;;;5014848;28;20038;-62
2023/02/18 05:09:33;;;;;;;6.50;1.02;;;8.40;90.60;;;;;;5013132;28;20040;-62
2023/02/18 05:11:59;;;;;;;5.10;0.95;;;8.50;90.60;;;;;;5008256;28;20037;-63
2023/02/18 05:14:25;;;;;;;10.35;1.60;;;8.50;90.50;;;;;;5015540;28;20041;-62
2023/02/18 05:16:51;;;;;;;11.15;1.00;;;8.50;90.40;;;;;;5013075;28;20049;-62
2023/02/18 05:19:16;;;;;;;8.65;1.35;;;8.50;90.40;;;;;;5012487;28;20040;-62
2023/02/18 05:21:42;;;;;;;3.95;1.05;;;8.50;90.30;;;;;;5014690;28;20048;-62
2023/02/18 05:24:08;;;;;;;4.88;0.80;;;8.50;90.30;;;;;;5011126;28;20135;-62
2023/02/18 05:26:34;;;;;;;4.80;0.85;;;8.50;90.30;;;;;;5016150;28;20037;-62
2023/02/18 05:29:00;;;;;;;5.30;0.95;;;8.50;90.30;;;;;;5012952;28;20064;-62
2023/02/18 05:31:26;;;;;;;3.97;0.95;;;8.60;90.20;;;;;;5012516;28;20068;-62
2023/02/18 05:33:52;;;;;;;2.33;0.63;;;8.60;90.30;;;;;;5009627;28;20100;-62
2023/02/18 05:36:17;;;;;;;6.15;0.70;;;8.60;90.50;;;;;;5011801;28;20033;-62
2023/02/18 05:38:43;;;;;;;2.10;0.60;;;8.60;90.30;;;;;;5012274;28;20030;-62
2023/02/18 05:41:09;;;;;;;7.47;0.82;;;8.60;90.20;;;;;;5015200;28;20034;-62
2023/02/18 05:44:29;;;;;;;6.15;0.90;;;8.60;90.00;;;;;;5016248;28;20639;-62
2023/02/18 05:46:21;;;;;;;6.87;1.70;;;8.60;90.00;;;;;;5012035;28;20037;-62
2023/02/18 05:48:47;;;;;;;7.63;2.53;;;8.60;89.80;;;;;;5011536;28;20054;-62
2023/02/18 05:51:12;;;;;;;4.00;0.73;;;8.60;90.20;;;;;;5011023;28;20228;-62
2023/02/18 05:53:38;;;;;;;7.57;1.95;;;8.60;90.40;;;;;;5007707;28;20819;-62
2023/02/18 05:56:04;;;;;;;5.90;1.00;;;8.60;90.20;;;;;;5010247;28;20749;-61
2023/02/18 05:58:30;;;;;;;6.65;1.63;;;8.60;90.10;;;;;;5012337;28;20025;-61
2023/02/18 06:00:56;;;;;;;2.50;0.90;;;8.70;90.10;;;;;;5013307;28;20232;-62
2023/02/18 06:03:22;;;;;;;6.30;1.08;;;8.60;90.00;;;;;;5008293;28;20061;-62
2023/02/18 06:05:51;;;;;;;4.45;1.00;;;8.60;90.30;;;;;;5010719;28;20091;-62
2023/02/18 06:08:19;;;;;;;5.07;0.70;;;8.60;90.50;;;;;;5012469;28;20069;-62
2023/02/18 06:10:45;;;;;;;5.45;1.00;;;8.60;90.50;;;;;;5013975;28;20551;-62
2023/02/18 06:13:11;;;;;;;3.20;0.85;;;8.70;90.60;;;;;;5006117;28;20073;-62
2023/02/18 06:15:37;;;;;;;8.15;1.30;;;8.60;90.40;;;;;;5011401;28;20021;-62
2023/02/18 06:18:04;;;;;;;8.00;1.63;;;8.50;90.50;;;;;;5010754;28;20775;-62
2023/02/18 06:20:30;;;;;;;6.82;1.55;;;8.40;90.60;;;;;;5012886;28;20441;-62
2023/02/18 06:22:56;;;;;;;6.13;2.05;;;8.30;91.20;;;;;;5009428;28;20030;-62
2023/02/18 06:25:21;;;;;;;3.67;0.88;;;8.30;91.50;;;;;;5006290;28;20092;-62
2023/02/18 06:27:47;;;;;;;5.53;1.30;;;8.30;91.80;;;;;;5013965;28;20038;-62
2023/02/18 06:30:13;;;;;;;7.85;1.33;;;8.40;91.80;;;;;;5011786;28;20076;-62
2023/02/18 06:32:39;;;;;;;3.83;1.65;;;8.50;91.90;;;;;;5010903;28;20036;-64
2023/02/18 06:35:05;;;;;;;6.53;1.83;;;8.50;91.70;;;;;;5007965;28;20034;-62
2023/02/18 06:37:31;;;;;;;4.25;1.13;;;8.50;92.10;;;;;;5016243;28;20099;-62
2023/02/18 06:39:57;;;;;;;4.93;1.15;;;8.50;92.30;;;;;;5014102;28;20025;-62
2023/02/18 06:42:23;;;;;;;8.38;1.92;;;8.60;92.60;;;;;;5010176;28;20690;-62
2023/02/18 06:44:48;;;;;;;2.05;1.15;;;8.60;92.70;;;;;;5010375;28;20771;-62
2023/02/18 06:47:14;;;;;;;7.72;2.92;;;8.60;92.80;;;;;;5010384;28;20044;-62
2023/02/18 06:49:40;;;;;;;3.38;1.95;;;8.70;92.80;;;;;;5014501;28;20029;-62
2023/02/18 06:52:06;;;;;;;2.63;1.63;;;8.70;92.50;;;;;;5008857;28;20026;-62
2023/02/18 06:54:32;;;;;;;11.88;5.40;;;8.70;92.80;;;;;;5006451;28;20032;-62
2023/02/18 06:56:58;;;;;;;12.65;5.63;;;8.70;92.90;;;;;;5010873;28;20572;-62
2023/02/18 06:59:23;;;;;;;11.35;5.68;;;8.70;92.90;;;;;;5007388;28;20037;-61
2023/02/18 07:01:49;;;;;;;8.50;3.67;;;8.70;93.00;;;;;;5011471;28;20596;-62
2023/02/18 07:04:15;;;;;;;7.72;2.10;;;8.70;93.20;;;;;;5012214;28;20119;-62
2023/02/18 07:06:41;;;;;;;4.32;1.73;;;8.80;93.50;;;;;;5010729;28;20037;-62
2023/02/18 07:09:07;;;;;;;5.05;1.42;;;8.80;93.80;;;;;;5014750;28;20045;-62
2023/02/18 07:11:32;;;;;;;6.10;1.70;;;8.80;94.00;;;;;;5006661;28;20808;-62
2023/02/18 07:13:58;;;;;;;3.28;1.20;;;8.80;94.30;;;;;;5010525;28;20034;-62
2023/02/18 07:16:24;;;;;;;4.93;1.08;;;8.80;94.60;;;;;;5006644;28;20107;-62
2023/02/18 07:18:50;;;;;;;3.60;0.75;;;8.70;94.80;;;;;;5007935;28;20021;-62
2023/02/18 07:21:15;;;;;;;4.05;0.98;;;8.70;95.00;;;;;;5011124;28;20029;-62
2023/02/18 07:23:41;;;;;;;2.22;0.80;;;8.80;95.20;;;;;;5011541;28;20040;-62
2023/02/18 07:26:10;;;;;;;4.75;0.70;;;8.70;95.30;;;;;;5009600;28;20497;-62
2023/02/18 07:28:37;;;;;;;7.25;0.95;;;8.70;95.50;;;;;;5013554;28;20836;-62
2023/02/18 07:31:03;;;;;;;3.85;0.88;;;8.70;95.70;;;;;;5011166;28;20060;-62
2023/02/18 07:33:29;;;;;;;6.32;1.10;;;8.70;95.80;;;;;;5009398;28;20046;-62
2023/02/18 07:35:57;;;;;;;9.80;1.35;;;8.70;95.90;;;;;;5011821;28;20022;-62
2023/02/18 07:38:24;;;;;;;3.30;0.98;;;8.70;96.00;;;;;;5006963;28;20042;-62
2023/02/18 07:40:51;;;;;;;2.90;0.73;;;8.70;96.00;;;;;;5016596;28;20037;-62
2023/02/18 07:43:17;;;;;;;5.82;1.33;;;8.70;96.20;;;;;;5009194;28;20041;-62
2023/02/18 07:45:43;;;;;;;2.40;0.73;;;8.60;96.30;;;;;;5007655;28;20746;-62
2023/02/18 07:48:09;;;;;;;2.97;1.10;;;8.70;96.50;;;;;;5009464;28;20052;-62
2023/02/18 07:50:42;;;;;;;4.25;1.00;;;8.70;96.70;;;;;;5005447;28;20545;-62
2023/02/18 07:53:09;;;;;;;4.18;0.70;;;8.60;96.70;;;;;;5007344;28;20752;-62
2023/02/18 07:55:50;;;;;;;3.85;0.77;;;8.60;97.00;;;;;;5013728;28;20068;-62
2023/02/18 07:58:23;;;;;;;5.38;1.00;;;8.60;97.10;;;;;;5010244;28;20094;-62
2023/02/18 08:00:49;;;;;;;2.58;0.70;;;8.60;97.20;;;;;;5012949;28;20032;-62
2023/02/18 08:03:17;;;;;;;3.05;0.75;;;8.70;97.30;;;;;;5008745;28;20029;-62
2023/02/18 08:05:43;;;;;;;4.78;1.17;;;8.70;97.50;;;;;;5012926;28;20136;-62
2023/02/18 08:08:12;;;;;;;8.65;3.63;;;8.80;97.30;;;;;;5014142;28;20175;-62
2023/02/18 08:10:38;;;;;;;59.72;26.23;;;8.70;97.40;;;;;;5017472;28;20033;-62
2023/02/18 08:13:04;;;;;;;74.28;31.95;;;8.80;97.30;;;;;;5015849;28;20033;-62
2023/02/18 08:15:29;;;;;;;60.42;27.30;;;8.80;97.40;;;;;;5012082;28;20040;-62
2023/02/18 08:17:55;;;;;;;54.22;22.02;;;8.90;97.50;;;;;;5013867;28;20413;-61
2023/02/18 08:20:21;;;;;;;25.40;12.13;;;8.90;97.60;;;;;;5009520;28;20730;-62
2023/02/18 08:22:47;;;;;;;13.18;5.78;;;8.90;97.50;;;;;;5010319;28;20033;-62
2023/02/18 08:25:12;;;;;;;7.10;2.85;;;8.90;97.40;;;;;;5011157;28;20049;-62
2023/02/18 08:27:38;;;;;;;5.20;2.03;;;9.00;97.40;;;;;;5016849;28;20056;-61
2023/02/18 08:30:05;;;;;;;6.13;1.48;;;9.00;97.40;;;;;;5012213;28;20417;-62
2023/02/18 08:32:30;;;;;;;5.20;1.40;;;8.90;97.50;;;;;;5011510;28;20045;-62
2023/02/18 08:34:56;;;;;;;3.45;1.10;;;9.00;97.50;;;;;;5010410;28;20035;-62
2023/02/18 08:37:22;;;;;;;6.10;1.35;;;9.00;97.60;;;;;;5013585;28;20049;-62
2023/02/18 08:39:48;;;;;;;5.50;1.33;;;9.00;97.80;;;;;;5015155;28;20040;-62
2023/02/18 08:42:14;;;;;;;3.63;0.98;;;9.00;97.80;;;;;;5008892;28;20030;-62
2023/02/18 08:44:40;;;;;;;3.55;1.13;;;9.00;97.90;;;;;;5009163;28;20930;-62
2023/02/18 08:47:06;;;;;;;7.80;2.00;;;9.10;98.00;;;;;;5013048;28;20040;-62
2023/02/18 08:49:31;;;;;;;8.68;1.63;;;9.10;97.30;;;;;;5010018;28;20378;-62
2023/02/18 08:51:57;;;;;;;4.60;1.13;;;9.10;96.40;;;;;;5013853;28;20765;-62
2023/02/18 08:54:23;;;;;;;4.50;1.30;;;9.10;96.50;;;;;;5013352;28;20045;-62
2023/02/18 08:56:49;;;;;;;4.43;1.20;;;9.10;96.50;;;;;;5015685;28;20844;-61
2023/02/18 08:59:14;;;;;;;5.40;1.33;;;9.10;96.70;;;;;;5011420;28;20513;-62
2023/02/18 09:01:40;;;;;;;7.05;1.20;;;9.00;97.10;;;;;;5012790;28;20037;-62
2023/02/18 09:04:06;;;;;;;8.02;1.23;;;8.90;97.60;;;;;;5012321;28;20045;-62
2023/02/18 09:06:36;;;;;;;6.78;1.00;;;8.80;98.10;;;;;;5011385;28;20030;-62
2023/02/18 09:09:03;;;;;;;5.45;1.10;;;8.90;98.40;;;;;;5018249;28;20041;-61
2023/02/18 09:11:29;;;;;;;7.82;0.95;;;8.90;98.50;;;;;;5011233;28;20044;-62
2023/02/18 09:13:55;;;;;;;7.10;1.20;;;8.80;98.70;;;;;;5013833;28;20831;-62
2023/02/18 09:16:21;;;;;;;9.27;1.05;;;8.80;98.80;;;;;;5011465;28;20040;-62
2023/02/18 09:18:47;;;;;;;5.57;1.13;;;8.80;99.00;;;;;;5014057;28;20025;-62
2023/02/18 09:21:15;;;;;;;7.70;1.20;;;8.80;99.20;;;;;;5014336;28;20429;-62
2023/02/18 09:23:41;;;;;;;4.38;1.40;;;8.80;99.40;;;;;;5012645;28;20030;-62
2023/02/18 09:26:09;;;;;;;3.03;1.10;;;8.80;99.80;;;;;;5013541;28;20025;-62
2023/02/18 09:28:36;;;;;;;6.68;1.38;;;8.60;99.90;;;;;;5015102;28;20084;-62
2023/02/18 09:31:11;;;;;;;7.63;1.40;;;8.60;99.90;;;;;;5014097;28;20029;-62
2023/02/18 09:33:39;;;;;;;;;;;8.60;99.90;;;;;;5015320;28;20750;-61
2023/02/18 09:36:05;;;;;;;13.15;5.38;;;8.70;99.90;;;;;;5010488;28;19972;-62
2023/02/18 09:38:32;;;;;;;8.02;2.42;;;8.60;99.90;;;;;;5010056;28;20792;-62
2023/02/18 09:41:00;;;;;;;7.47;1.80;;;8.70;99.90;;;;;;5012860;28;20583;-62
2023/02/18 09:43:46;;;;;;;9.00;1.83;;;8.70;99.90;;;;;;5010039;28;20048;-62
2023/02/18 09:46:34;;;;;;;6.67;1.97;;;8.50;99.90;;;;;;5016155;28;20069;-62
2023/02/18 09:49:03;;;;;;;11.93;1.50;;;8.50;99.90;;;;;;5014260;28;20319;-62
2023/02/18 09:51:29;;;;;;;8.90;2.33;;;8.60;99.90;;;;;;5000066;28;20885;-62
2023/02/18 09:53:55;;;;;;;9.55;1.80;;;8.70;99.90;;;;;;5007586;28;20044;-62
2023/02/18 09:56:34;;;;;;;6.45;1.90;;;8.60;99.90;;;;;;5011414;28;20037;-62
2023/02/18 09:59:03;;;;;;;9.05;1.60;;;8.50;99.90;;;;;;5009903;28;20029;-62
2023/02/18 10:01:36;;;;;;;7.10;1.50;;;8.50;99.90;;;;;;5012565;28;20084;-63
2023/02/18 10:04:26;;;;;;;9.10;1.63;;;8.50;99.90;;;;;;5007286;28;20037;-62
2023/02/18 10:06:53;;;;;;;8.30;1.73;;;8.30;99.90;;;;;;5008936;28;20120;-62
2023/02/18 10:09:38;;;;;;;7.35;1.67;;;8.30;99.90;;;;;;5007548;28;20095;-61
2023/02/18 10:12:14;;;;;;;4.35;1.40;;;8.30;99.90;;;;;;5010718;28;20033;-62
2023/02/18 10:14:42;;;;;;;;;;;8.40;99.90;;;;;;5012297;28;20685;-62
2023/02/18 10:17:14;;;;;;;6.20;2.00;;;8.40;99.90;;;;;;5010247;28;19949;-62
2023/02/18 10:19:43;;;;;;;7.72;2.08;;;8.50;99.90;;;;;;5009572;28;20060;-61
2023/02/18 10:22:11;;;;;;;6.07;2.03;;;8.50;99.90;;;;;;5013808;28;20539;-62
2023/02/18 10:24:49;;;;;;;8.25;2.58;;;8.60;99.90;;;;;;5009021;28;20051;-62
2023/02/18 10:27:25;;;;;;;12.18;3.50;;;8.60;99.90;;;;;;5008167;28;20026;-62
2023/02/18 10:29:51;;;;;;;8.63;1.60;;;8.60;99.90;;;;;;5013444;28;20128;-62
2023/02/18 10:32:29;;;;;;;9.57;1.70;;;8.70;99.90;;;;;;5010870;28;20509;-62
2023/02/18 10:35:14;;;;;;;5.13;1.58;;;8.80;99.90;;;;;;5010772;28;20098;-63
2023/02/18 10:37:58;;;;;;;4.60;1.00;;;8.90;99.90;;;;;;5012395;28;20083;-62
2023/02/18 10:41:00;;;;;;;5.20;1.20;;;8.90;99.90;;;;;;5018689;28;20021;-63
2023/02/18 10:43:37;;;;;;;5.88;1.42;;;9.00;99.90;;;;;;5014707;28;20223;-63
2023/02/18 10:46:20;;;;;;;10.25;1.25;;;9.00;99.90;;;;;;5016705;28;20029;-63
2023/02/18 10:49:00;;;;;;;7.20;1.48;;;9.00;99.90;;;;;;5010681;28;20037;-63
2023/02/18 10:51:30;;;;;;;2.40;1.00;;;9.00;99.90;;;;;;5012530;28;20025;-63
2023/02/18 10:53:56;;;;;;;5.03;1.67;;;8.90;99.90;;;;;;5012707;28;20103;-63
2023/02/18 10:56:45;;;;;;;2.38;1.48;;;8.90;99.90;;;;;;5014329;28;20033;-63
2023/02/18 10:59:14;;;;;;;4.65;1.67;;;8.90;99.90;;;;;;5015216;28;20037;-63
2023/02/18 11:01:42;;;;;;;7.28;2.05;;;8.90;99.90;;;;;;5013922;28;20379;-63
2023/02/18 11:04:19;;;;;;;2.97;1.63;;;8.80;99.90;;;;;;5014484;28;20076;-63
2023/02/18 11:06:48;;;;;;;2.90;1.50;;;8.90;99.90;;;;;;5013924;28;20034;-64
2023/02/18 11:09:38;;;;;;;3.28;1.50;;;8.90;99.90;;;;;;5011975;28;20095;-64
2023/02/18 11:12:14;;;;;;;2.60;1.38;;;8.90;99.90;;;;;;5011762;28;20038;-64
2023/02/18 11:15:08;;;;;;;3.42;1.40;;;9.10;99.90;;;;;;5009214;28;20033;-64
2023/02/18 11:17:36;;;;;;;3.38;1.60;;;9.20;99.90;;;;;;5014312;28;20444;-64
2023/02/18 11:20:20;;;;;;;1.80;1.40;;;9.00;99.90;;;;;;5014016;28;20113;-64
2023/02/18 11:22:47;;;;;;;2.25;1.23;;;9.10;99.90;;;;;;5014906;28;20034;-64
2023/02/18 11:25:23;;;;;;;3.67;1.60;;;9.00;99.90;;;;;;5015080;28;20069;-64
2023/02/18 11:27:55;;;;;;;2.70;1.43;;;8.80;99.90;;;;;;5009261;28;20394;-64
2023/02/18 11:30:23;;;;;;;3.25;1.77;;;8.80;99.90;;;;;;5016682;28;20041;-63
2023/02/18 11:32:54;;;;;;;2.75;1.77;;;8.90;99.90;;;;;;5015967;28;20655;-64
2023/02/18 11:35:24;;;;;;;2.60;1.60;;;9.00;99.90;;;;;;5018081;28;20048;-63
2023/02/18 11:37:50;;;;;;;3.42;2.10;;;9.00;99.90;;;;;;5020909;28;20023;-64
2023/02/18 11:40:27;;;;;;;2.95;2.00;;;8.90;99.90;;;;;;5013524;28;20038;-64
2023/02/18 11:43:03;;;;;;;4.18;2.40;;;8.90;99.90;;;;;;5014024;28;20099;-63
2023/02/18 11:45:32;;;;;;;4.82;3.33;;;9.00;99.90;;;;;;5016167;28;20556;-64
2023/02/18 11:48:22;;;;;;;6.53;2.70;;;9.00;99.90;;;;;;5017932;28;20734;-64
2023/02/18 11:50:52;;;;;;;4.88;3.30;;;8.90;99.90;;;;;;5015075;28;20033;-64
2023/02/18 11:53:37;;;;;;;5.78;3.80;;;9.00;99.90;;;;;;5011324;28;20385;-64
2023/02/18 11:56:16;;;;;;;5.13;3.75;;;9.10;99.90;;;;;;5015583;28;20038;-64
2023/02/18 11:58:46;;;;;;;6.15;3.40;;;9.30;99.90;;;;;;5016130;28;20029;-64
2023/02/18 12:01:37;;;;;;;6.43;4.03;;;9.40;99.90;;;;;;5007744;28;20041;-64
2023/02/18 12:04:17;;;;;;;6.72;3.78;;;9.60;99.90;;;;;;5007357;28;20036;-64
2023/02/18 12:07:04;;;;;;;6.45;3.80;;;9.70;99.90;;;;;;5016698;28;20029;-64
2023/02/18 12:09:43;;;;;;;9.80;3.50;;;9.80;99.90;;;;;;5013508;28;20041;-64
2023/02/18 12:12:29;;;;;;;5.65;3.35;;;10.10;99.90;;;;;;5011301;28;20026;-64
2023/02/18 12:14:57;;;;;;;8.73;3.90;;;10.20;99.90;;;;;;5013770;28;20033;-64
2023/02/18 12:17:45;;;;;;;6.20;3.67;;;10.30;99.90;;;;;;5010712;28;20033;-64
2023/02/18 12:20:26;;;;;;;7.40;3.88;;;10.40;99.90;;;;;;5016677;28;20129;-64
2023/02/18 12:23:03;;;;;;;5.25;3.50;;;10.50;99.90;;;;;;5013212;28;20045;-64
2023/02/18 12:25:47;;;;;;;6.38;3.97;;;10.70;99.90;;;;;;5013568;28;20037;-64
2023/02/18 12:28:19;;;;;;;5.25;3.03;;;11.00;99.90;;;;;;5013608;28;20049;-64
2023/02/18 12:31:16;;;;;;;4.68;3.33;;;11.10;99.90;;;;;;5011655;28;20037;-64
2023/02/18 12:33:44;;;;;;;6.25;3.38;;;11.30;99.90;;;;;;5012920;28;20034;-64
2023/02/18 12:36:28;;;;;;;5.75;3.70;;;11.40;99.90;;;;;;5011479;28;20037;-64
2023/02/18 12:39:28;;;;;;;7.55;4.75;;;11.50;99.90;;;;;;5015186;28;20115;-64
2023/02/18 12:42:32;;;;;;;4.00;3.45;;;11.60;99.90;;;;;;5017209;28;20057;-64
2023/02/18 12:45:03;;;;;;;5.93;3.30;;;11.60;99.90;;;;;;4933505;28;20563;-64
2023/02/18 12:47:32;;;;;;;3.92;2.58;;;11.60;99.90;;;;;;5018033;28;20065;-64
2023/02/18 12:50:42;;;;;;;3.70;2.78;;;11.60;99.90;;;;;;5020748;28;20095;-64
2023/02/18 12:53:35;;;;;;;2.00;1.80;;;11.70;99.90;;;;;;4927094;29;20042;-64
2023/02/18 12:56:20;;;;;;;1.95;1.75;;;11.80;99.90;;;;;;5013834;28;20033;-64
2023/02/18 12:58:58;;;;;;;2.22;1.77;;;11.80;99.90;;;;;;5016466;28;20022;-64
2023/02/18 13:01:46;;;;;;;1.50;1.40;;;11.80;99.90;;;;;;5012132;28;20076;-64
2023/02/18 13:04:24;;;;;;;1.60;1.50;;;11.80;99.90;;;;;;5013083;28;20064;-64
2023/02/18 13:07:12;;;;;;;1.35;1.25;;;11.90;99.90;;;;;;5017183;28;20033;-64
2023/02/18 13:09:58;;;;;;;1.83;1.70;;;11.90;99.90;;;;;;5012285;28;20033;-64
2023/02/18 13:12:37;;;;;;;1.80;1.70;;;11.80;99.90;;;;;;5001134;28;20184;-64
2023/02/18 13:15:19;;;;;;;1.92;1.77;;;11.80;99.90;;;;;;5017677;28;20191;-64